• Join FlightAware (Why Join?)
  • Login
  • US Flag 
11:10AM EDT


 

Airport Tracker/Info


-or-


 

Live Flight TrackerFlight Track Log ✈ N269ML ✈ 10-Sep-2013 ✈ KRST - KGYI

Flight Track Log - Related Links

Times and Time Zones

All times are in EDT time to prevent confusion due to time zone crossing. See the N269ML flight status page for this flight to view local times or setup timezone preferences in your user account.

Time Position Orientation Groundspeed Altitude Reporting Facility
EDT Latitude Longitude Course Direction KTS MPH feet Rate Location/Type
02:30PM 43.9392 -92.5439 199° South 148 170 3,100  Level Minneapolis Center
02:32PM 43.9086 -92.5783 219° Southwest 152 175 5,100 1,980 Climbing Minneapolis Center
02:33PM 43.8550 -92.6011 197° South 153 176 7,700 2,100 Climbing Minneapolis Center
02:34PM 43.8172 -92.6164 196° South 147 169 9,900 1,680 Climbing Minneapolis Center
02:35PM 43.7719 -92.6358 197° South 144 166 11,600 1,440 Climbing Minneapolis Center
02:36PM 43.5527 -92.6692 199° South  Level Estimated
02:36PM 43.7250 -92.6569 198° South 162 186 13,000  Level Minneapolis Center
02:37PM 43.6783 -92.6803 200° South 175 201 14,700 1,560 Climbing Minneapolis Center
02:38PM 43.6256 -92.7050 199° South 172 198 16,300 1,320 Climbing Minneapolis Center
02:39PM 43.5803 -92.7247 198° South 171 197 17,500 1,200 Climbing Minneapolis Center
02:40PM 43.5308 -92.7481 199° South 185 213 18,800 1,020 Climbing Minneapolis Center
02:41PM 43.4828 -92.7697 198° South 185 213 19,700 780 Climbing Minneapolis Center
02:42PM 43.4331 -92.7944 200° South 191 220 20,600 900 Climbing Minneapolis Center
02:43PM 43.3642 -92.8228 197° South 187 215 21,800 960 Climbing Minneapolis Center
02:44PM 43.3156 -92.8481 201° Southwest 187 215 22,600 720 Climbing Minneapolis Center
02:45PM 43.2667 -92.8700 198° South 187 215 23,400 660 Climbing Minneapolis Center
02:47PM 43.2183 -92.8936 200° South 187 215 24,000 660 Climbing Minneapolis Center
02:48PM 43.1594 -92.9206 198° South 187 215 24,800 600 Climbing Minneapolis Center
02:49PM 43.1108 -92.9431 199° South 188 216 25,300 540 Climbing Minneapolis Center
02:50PM 43.0608 -92.9644 197° South 189 217 26,000 540 Climbing Minneapolis Center
02:51PM 43.0119 -92.9878 199° South 188 216 26,500 480 Climbing Minneapolis Center
02:52PM 42.9631 -93.0103 199° South 188 216 27,000 540 Climbing Minneapolis Center
02:53PM 42.9042 -93.0358 198° South 186 214 27,700 480 Climbing Minneapolis Center
02:54PM 42.8556 -93.0597 200° South 188 216 28,000 120 Climbing Minneapolis Center
02:55PM 42.8031 -93.0819 197° South 194 223 28,000  Level Minneapolis Center
02:56PM 42.7469 -93.1075 198° South 207 238 28,000  Level Minneapolis Center
02:57PM 42.6906 -93.1350 200° South 216 249 28,000  Level Minneapolis Center
02:58PM 42.6228 -93.1656 198° South 216 249 28,000  Level Minneapolis Center
02:59PM 42.5656 -93.1922 199° South 218 251 28,000  Level Minneapolis Center
03:00PM 42.5086 -93.2167 198° South 218 251 28,000  Level Minneapolis Center
03:01PM 42.4511 -93.2431 199° South 220 253 28,000  Level Minneapolis Center
03:02PM 42.3836 -93.2733 198° South 216 249 28,000  Level Minneapolis Center
03:03PM 42.3272 -93.2981 198° South 216 249 28,000  Level Minneapolis Center
03:04PM 42.2700 -93.3236 198° South 218 251 28,000  Level Minneapolis Center
03:05PM 42.2142 -93.3492 199° South 216 249 28,000  Level Minneapolis Center
03:06PM 42.1586 -93.3728 197° South 214 246 28,000  Level Minneapolis Center
03:07PM 42.0906 -93.4033 198° South 217 250 28,000  Level Minneapolis Center
03:08PM 42.0206 -93.4344 198° South 221 254 28,000  Level Minneapolis Center
03:09PM 41.9636 -93.4608 199° South 219 252 28,000  Level Minneapolis Center
03:11PM 41.9081 -93.4867 199° South 221 254 28,000  Level Minneapolis Center
03:12PM 41.8389 -93.5164 198° South 220 253 28,000  Level Minneapolis Center
03:13PM 41.7817 -93.5394 197° South 216 249 28,000  Level Minneapolis Center
03:14PM 41.7231 -93.5681 200° South 223 257 28,000  Level Minneapolis Center
03:15PM 41.6653 -93.5933 198° South 222 255 28,000  Level Minneapolis Center
03:16PM 41.5961 -93.6200 196° South 221 254 28,000  Level Minneapolis Center
03:17PM 41.5278 -93.6494 198° South 218 251 28,000  Level Minneapolis Center
03:18PM 41.4694 -93.6742 198° South 220 253 28,000  Level Minneapolis Center
03:19PM 41.4117 -93.6983 197° South 220 253 28,000  Level Minneapolis Center
03:20PM 41.3547 -93.7261 200° South 220 253 28,000  Level Minneapolis Center
03:21PM 41.2850 -93.7542 197° South 221 254 28,000  Level Minneapolis Center
03:22PM 41.2275 -93.7783 198° South 220 253 28,000  Level Minneapolis Center
03:23PM 41.1692 -93.8047 199° South 221 254 28,000  Level Minneapolis Center
03:24PM 41.1103 -93.8297 198° South 223 257 28,000  Level Minneapolis Center
03:25PM 41.0639 -93.8489 197° South 223 257 28,000  Level Minneapolis Center
03:26PM 40.9819 -93.8844 198° South 222 255 28,000  Level Minneapolis Center
03:27PM 40.9236 -93.9100 198° South 223 257 28,000  Level Minneapolis Center
03:28PM 40.8647 -93.9342 197° South 224 258 28,000  Level Minneapolis Center
03:29PM 40.8047 -93.9603 198° South 226 260 28,000  Level Minneapolis Center
03:30PM 40.7447 -93.9856 198° South 228 262 28,000  Level Minneapolis Center
03:31PM 40.6731 -94.0153 197° South 227 261 28,000  Level Minneapolis Center
03:32PM 40.6136 -94.0408 198° South 227 261 28,000  Level Minneapolis Center
03:33PM 40.5550 -94.0667 199° South 226 260 28,000  Level Minneapolis Center
03:34PM 40.4969 -94.0900 197° South 224 258 28,000  Level Minneapolis Center
03:35PM 40.4383 -94.1144 198° South 222 255 28,000  Level Minneapolis Center
03:37PM 40.3678 -94.1442 198° South 224 258 28,000  Level Minneapolis Center
03:38PM 40.3119 -94.1681 198° South 220 253 28,000  Level Kansas City Center
03:39PM 40.2550 -94.1911 197° South 222 255 28,000  Level Kansas City Center
03:40PM 40.1986 -94.2158 199° South 222 255 28,000  Level Kansas City Center
03:41PM 40.1297 -94.2406 195° South 226 260 28,000  Level Kansas City Center
03:42PM 40.0722 -94.2656 198° South 225 259 28,000  Level Kansas City Center
03:43PM 40.0050 -94.2931 197° South 226 260 28,000  Level Kansas City Center
03:44PM 39.9472 -94.3167 197° South 227 261 28,000  Level Kansas City Center
03:45PM 39.8789 -94.3458 198° South 229 264 28,000  Level Kansas City Center
03:46PM 39.8203 -94.3697 197° South 230 265 28,000  Level Kansas City Center
03:47PM 39.7525 -94.3978 198° South 230 265 28,000  Level Kansas City Center
03:48PM 39.6936 -94.4219 198° South 230 265 28,000  Level Kansas City Center
03:49PM 39.6356 -94.4456 197° South 227 261 28,000  Level Kansas City Center
03:50PM 39.5669 -94.4731 197° South 230 265 28,000  Level Kansas City Center
03:51PM 39.5081 -94.4975 198° South 231 266 28,000  Level Kansas City Center
03:52PM 39.4400 -94.5247 197° South 227 261 28,000  Level Kansas City Center
03:53PM 39.3806 -94.5492 198° South 232 267 28,000  Level Kansas City Center
03:54PM 39.3122 -94.5764 197° South 231 266 28,000  Level Kansas City Center
03:55PM 39.2522 -94.6000 197° South 233 268 28,000  Level Kansas City Center
03:56PM 39.1917 -94.6231 196° South 236 272 28,000  Level Kansas City Center
03:57PM 39.1231 -94.6528 199° South 232 267 28,000  Level Kansas City Center
03:58PM 39.0644 -94.6764 197° South 230 265 28,000  Level Kansas City Center
03:59PM 38.9953 -94.7044 197° South 232 267 28,000  Level Kansas City Center
04:00PM 38.9369 -94.7283 198° South 230 265 28,000  Level Kansas City Center
04:01PM 38.8681 -94.7556 197° South 231 266 28,000  Level Kansas City Center
04:02PM 38.8092 -94.7786 197° South 230 265 28,000  Level Kansas City Center
04:03PM 38.7508 -94.8033 198° South 229 264 28,000  Level Kansas City Center
04:04PM 38.6828 -94.8294 197° South 229 264 28,000  Level Kansas City Center
04:05PM 38.6247 -94.8531 198° South 228 262 28,000  Level Kansas City Center
04:06PM 38.5567 -94.8803 197° South 229 264 28,000  Level Kansas City Center
04:07PM 38.4978 -94.9014 196° South 228 262 28,000  Level Kansas City Center
04:08PM 38.4297 -94.9319 199° South 232 267 28,000  Level Kansas City Center
04:10PM 38.3706 -94.9533 196° South 231 266 28,000  Level Kansas City Center
04:11PM 38.3022 -94.9808 198° South 231 266 28,000  Level Kansas City Center
04:12PM 38.2436 -95.0031 197° South 230 265 28,000  Level Kansas City Center
04:13PM 38.1747 -95.0286 196° South 230 265 28,000  Level Kansas City Center
04:14PM 38.1147 -95.0542 199° South 234 269 28,000  Level Kansas City Center
04:15PM 38.0447 -95.0808 197° South 235 270 28,000  Level Kansas City Center
04:17PM 37.9326 -95.1122 192° South  Level FlightAware Approximate
04:18PM 37.8594 -95.1531 192° South 234 269 28,000  Level Kansas City Center
04:19PM 37.7964 -95.1750 195° South 234 269 28,000  Level Kansas City Center
04:20PM 37.7206 -95.2081 199° South 238 274 28,000  Level Kansas City Center
04:21PM 37.6575 -95.2306 196° South 237 273 28,000  Level Kansas City Center
04:22PM 37.5944 -95.2522 195° South 235 270 28,000  Level Kansas City Center
04:23PM 37.5306 -95.2806 199° South 239 275 28,000  Level Kansas City Center
04:24PM 37.4672 -95.3050 197° South 239 275 28,000  Level Kansas City Center
04:25PM 37.4031 -95.3281 196° South 239 275 28,000  Level Kansas City Center
04:26PM 37.3400 -95.3514 196° South 237 273 28,000  Level Kansas City Center
04:27PM 37.2628 -95.3814 197° South 239 275 28,000  Level Kansas City Center
04:28PM 37.1981 -95.4061 197° South 241 277 28,000  Level Kansas City Center
04:29PM 37.1347 -95.4308 197° South 239 275 28,000  Level Kansas City Center
04:30PM 37.0703 -95.4553 197° South 241 277 28,000  Level Kansas City Center
04:31PM 37.0064 -95.4783 196° South 239 275 28,000  Level Kansas City Center
04:32PM 36.9419 -95.5039 198° South 241 277 28,000  Level Kansas City Center
04:33PM 36.8636 -95.5339 197° South 244 281 28,000  Level Kansas City Center
04:34PM 36.7992 -95.5578 197° South 243 280 28,000  Level Kansas City Center
04:35PM 36.7353 -95.5833 198° South 242 278 28,000  Level Kansas City Center
04:36PM 36.6706 -95.6072 196° South 242 278 28,000  Level Kansas City Center
04:37PM 36.5981 -95.6342 197° South 244 281 28,000  Level Kansas City Center
04:38PM 36.5336 -95.6586 197° South 243 280 28,000  Level Kansas City Center
04:39PM 36.4689 -95.6814 196° South 242 278 28,000  Level Kansas City Center
04:41PM 36.4053 -95.7061 197° South 240 276 28,000  Level Kansas City Center
04:42PM 36.3417 -95.7289 196° South 238 274 28,000  Level Kansas City Center
04:43PM 36.2789 -95.7511 196° South 236 272 28,000  Level Kansas City Center
04:44PM 36.2125 -95.7764 197° South 236 272 28,000  Level Kansas City Center
04:45PM 36.1367 -95.8039 196° South 235 270 28,000  Level Kansas City Center
04:46PM 36.0731 -95.8269 196° South 238 274 28,000  Level Kansas City Center
04:47PM 36.0094 -95.8503 197° South 237 273 28,000  Level Kansas City Center
04:48PM 35.9461 -95.8742 197° South 238 274 28,000  Level Kansas City Center
04:49PM 35.8817 -95.8975 196° South 240 276 28,000  Level Kansas City Center
04:50PM 35.8181 -95.9200 196° South 238 274 28,000  Level Kansas City Center
04:51PM 35.7419 -95.9489 197° South 237 273 28,000  Level Kansas City Center
04:52PM 35.6781 -95.9714 196° South 239 275 28,000  Level Kansas City Center
04:53PM 35.6147 -95.9964 198° South 239 275 28,000  Level Kansas City Center
04:54PM 35.5508 -96.0183 196° South 237 273 28,000  Level Kansas City Center
04:55PM 35.4878 -96.0411 196° South 236 272 28,000 -300 Level Kansas City Center
04:56PM 35.4153 -96.0683 197° South 238 274 27,500 -600 Descending Kansas City Center
04:57PM 35.3456 -96.0928 196° South 251 289 26,800 -720 Descending Kansas City Center
04:58PM 35.2392 -96.1350 198° South 259 298 25,800 -960 Descending Fort Worth Center
04:59PM 35.1686 -96.1589 195° South 264 304 24,600 -1,200 Descending Fort Worth Center
05:00PM 35.0978 -96.1853 197° South 264 304 23,500 -1,200 Descending Fort Worth Center
05:01PM 35.0272 -96.2092 195° South 264 304 22,300 -1,140 Descending Fort Worth Center
05:02PM 34.9586 -96.2356 197° South 264 304 21,300 -1,140 Descending Fort Worth Center
05:04PM 34.8934 -96.2358 197° South  Level FlightAware Approximate
05:04PM 34.8192 -96.2831 197° South 264 304 19,000  Level Fort Worth Center
05:05PM 34.7506 -96.3092 197° South 264 304 17,800 -1,080 Descending Fort Worth Center
05:06PM 34.6842 -96.3328 196° South 259 298 16,900 -960 Descending Fort Worth Center
05:07PM 34.6175 -96.3564 196° South 259 298 15,900 -1,080 Descending Fort Worth Center
05:08PM 34.5531 -96.3797 197° South 259 298 14,800 -1,140 Descending Fort Worth Center
05:09PM 34.4864 -96.4033 196° South 259 298 13,700 -1,140 Descending Fort Worth Center
05:10PM 34.4242 -96.4267 197° South 249 287 12,600 -1,080 Descending Fort Worth Center
05:11PM 34.3617 -96.4500 197° South 239 275 11,600 -1,020 Descending Fort Worth Center
05:12PM 34.3014 -96.4708 196° South 239 275 10,600 -1,080 Descending Fort Worth Center
05:13PM 34.2431 -96.4939 198° South 228 262 9,500 -1,200 Descending Fort Worth Center
05:14PM 34.1869 -96.5247 204° Southwest 228 262 8,300 -1,260 Descending Fort Worth Center
05:15PM 34.1328 -96.5553 205° Southwest 228 262 7,000 -1,080 Descending Fort Worth Center
05:16PM 34.0808 -96.5833 204° Southwest 221 254 6,200 -480 Descending Fort Worth Center
05:17PM 34.0308 -96.6039 199° South 206 237 6,100 -420 Descending Fort Worth Center
05:18PM 33.9872 -96.6269 204° Southwest 191 220 5,400 -1,020 Descending Fort Worth Center
05:19PM 33.9414 -96.6450 198° South 186 214 4,100 -1,080 Descending Fort Worth Center
05:20PM 33.8997 -96.6653 202° Southwest 181 208 3,300 2,880 Descending Fort Worth Center
05:21PM 33.8581 -96.6631 177° South 181 208 10,000 -300 Climbing Fort Worth Center
05:22PM 33.8228 -96.6708 190° South 211 243 2,800 -3,600 Descending Fort Worth Center
05:23PM 33.7664 -96.6739 183° South 186 214 2,800 3,540 Level Fort Worth Center
05:24PM 33.7142 -96.6819 187° South 186 214 10,000 3,600 Climbing Fort Worth Center
05:25PM 33.6619 -96.6872 185° South 186 214 10,000  Level Fort Worth Center